createdAt,value
2018-09-06T00:00:07.752Z,989.63
2018-09-06T00:01:07.980Z,989.64
2018-09-06T00:02:08.218Z,989.60
2018-09-06T00:03:08.443Z,989.60
2018-09-06T00:04:08.678Z,989.60
2018-09-06T00:05:08.907Z,989.60
2018-09-06T00:06:09.138Z,989.55
2018-09-06T00:07:09.368Z,989.53
2018-09-06T00:08:09.598Z,989.53
2018-09-06T00:09:09.829Z,989.52
2018-09-06T00:10:10.061Z,989.50
2018-09-06T00:11:10.296Z,989.49
2018-09-06T00:12:10.522Z,989.48
2018-09-06T00:13:10.752Z,989.50
2018-09-06T00:14:10.989Z,989.48
2018-09-06T00:15:11.216Z,989.44
2018-09-06T00:16:11.449Z,989.42
2018-09-06T00:17:11.678Z,989.40
2018-09-06T00:18:11.913Z,989.45
2018-09-06T00:19:12.140Z,989.39
2018-09-06T00:20:12.372Z,989.40
2018-09-06T00:21:12.605Z,989.41
2018-09-06T00:22:12.832Z,989.44
2018-09-06T00:23:13.063Z,989.42
2018-09-06T00:24:13.294Z,989.35
2018-09-06T00:25:13.528Z,989.35
2018-09-06T00:26:13.754Z,989.32
2018-09-06T00:27:13.986Z,989.34
2018-09-06T00:28:14.223Z,989.31
2018-09-06T00:29:14.447Z,989.30
2018-09-06T00:30:14.676Z,989.32
2018-09-06T00:31:14.907Z,989.30
2018-09-06T00:32:15.139Z,989.31
2018-09-06T00:33:15.368Z,989.31
2018-09-06T00:34:15.603Z,989.31
2018-09-06T00:35:15.827Z,989.29
2018-09-06T00:36:16.056Z,989.27
2018-09-06T00:37:16.291Z,989.26
2018-09-06T00:38:16.522Z,989.25
2018-09-06T00:39:16.755Z,989.24
2018-09-06T00:40:16.981Z,989.29
2018-09-06T00:41:17.216Z,989.27
2018-09-06T00:42:17.443Z,989.23
2018-09-06T00:43:17.670Z,989.24
2018-09-06T00:44:17.905Z,989.26
2018-09-06T00:45:18.135Z,989.24
2018-09-06T00:46:18.366Z,989.21
2018-09-06T00:47:18.595Z,989.18
2018-09-06T00:48:18.828Z,989.19
2018-09-06T00:49:19.061Z,989.19
2018-09-06T00:50:19.327Z,989.23
2018-09-06T00:51:19.523Z,989.18
2018-09-06T00:52:19.752Z,989.21
2018-09-06T00:53:19.981Z,989.17
2018-09-06T00:54:20.214Z,989.17
2018-09-06T00:59:31.953Z,989.15
2018-09-06T01:00:32.181Z,989.11
2018-09-06T01:01:32.401Z,989.12
2018-09-06T01:02:32.627Z,989.14
2018-09-06T01:03:32.857Z,989.11
2018-09-06T01:04:33.084Z,989.11
2018-09-06T01:05:33.315Z,989.08
2018-09-06T01:06:33.545Z,989.15
2018-09-06T01:07:33.773Z,989.13
2018-09-06T01:08:33.999Z,989.13
2018-09-06T01:09:34.230Z,989.13
2018-09-06T01:10:34.459Z,989.15
2018-09-06T01:11:34.684Z,989.13
2018-09-06T01:12:34.914Z,989.11
2018-09-06T01:13:35.143Z,989.10
2018-09-06T01:14:35.373Z,989.10
2018-09-06T01:15:35.601Z,989.12
2018-09-06T01:16:35.829Z,989.08
2018-09-06T01:17:36.060Z,989.07
2018-09-06T01:18:36.289Z,989.06
2018-09-06T01:19:36.517Z,989.07
2018-09-06T01:20:36.796Z,989.07
2018-09-06T01:21:37.027Z,989.04
2018-09-06T01:22:37.255Z,989.03
2018-09-06T01:23:37.505Z,988.97
2018-09-06T01:24:37.716Z,988.97
2018-09-06T01:25:37.969Z,988.94
2018-09-06T01:26:38.173Z,988.94
2018-09-06T01:27:38.402Z,988.92
2018-09-06T01:28:38.631Z,988.94
2018-09-06T01:29:38.860Z,988.93
2018-09-06T01:30:39.093Z,988.94
2018-09-06T01:31:39.316Z,988.93
2018-09-06T01:32:39.547Z,988.94
2018-09-06T01:33:39.780Z,988.92
2018-09-06T01:34:40.003Z,988.93
2018-09-06T01:35:40.231Z,988.94
2018-09-06T01:36:40.461Z,988.92
2018-09-06T01:37:40.690Z,988.89
2018-09-06T01:38:40.923Z,988.90
2018-09-06T01:39:41.153Z,988.88
2018-09-06T01:40:41.378Z,988.92
2018-09-06T01:41:41.607Z,988.86
2018-09-06T01:42:41.838Z,988.87
2018-09-06T01:43:42.068Z,988.83
2018-09-06T01:44:42.297Z,988.79
2018-09-06T01:45:42.526Z,988.83
2018-09-06T01:46:42.756Z,988.82
2018-09-06T01:47:42.986Z,988.79
2018-09-06T01:48:43.215Z,988.82
2018-09-06T01:49:43.441Z,988.80
2018-09-06T01:50:43.670Z,988.81
2018-09-06T01:51:43.900Z,988.78
2018-09-06T01:52:44.130Z,988.77
2018-09-06T01:53:44.358Z,988.79
2018-09-06T01:54:44.590Z,988.77
2018-09-06T01:55:44.817Z,988.78
2018-09-06T01:56:45.045Z,988.75
2018-09-06T01:57:45.276Z,988.78
2018-09-06T01:58:45.502Z,988.77
2018-09-06T01:59:45.733Z,988.73
2018-09-06T02:00:45.961Z,988.74
2018-09-06T02:01:46.189Z,988.72
2018-09-06T02:02:46.421Z,988.70
2018-09-06T02:03:46.650Z,988.68
2018-09-06T02:04:46.878Z,988.71
2018-09-06T02:05:47.111Z,988.66
2018-09-06T02:06:47.336Z,988.68
2018-09-06T02:07:47.567Z,988.62
2018-09-06T02:08:47.796Z,988.67
2018-09-06T02:09:48.026Z,988.63
2018-09-06T02:10:48.255Z,988.65
2018-09-06T02:11:48.485Z,988.65
2018-09-06T02:12:48.715Z,988.66
2018-09-06T02:13:48.944Z,988.59
2018-09-06T02:14:49.176Z,988.59
2018-09-06T02:15:49.402Z,988.58
2018-09-06T02:16:49.630Z,988.58
2018-09-06T02:17:49.861Z,988.56
2018-09-06T02:18:50.090Z,988.57
2018-09-06T02:19:50.323Z,988.56
2018-09-06T02:20:50.564Z,988.58
2018-09-06T02:21:50.776Z,988.61
2018-09-06T02:22:51.005Z,988.58
2018-09-06T02:23:51.234Z,988.63
2018-09-06T02:24:51.466Z,988.57
2018-09-06T02:25:51.699Z,988.59
2018-09-06T02:26:51.926Z,988.61
2018-09-06T02:27:52.159Z,988.60
2018-09-06T02:28:52.387Z,988.62
2018-09-06T02:29:52.616Z,988.64
2018-09-06T02:30:52.844Z,988.64
2018-09-06T02:31:53.114Z,988.61
2018-09-06T02:32:53.305Z,988.64
2018-09-06T02:33:53.539Z,988.63
2018-09-06T02:34:53.767Z,988.63
2018-09-06T02:35:53.999Z,988.62
2018-09-06T02:36:54.224Z,988.67
2018-09-06T02:37:54.455Z,988.61
2018-09-06T02:38:54.682Z,988.58
2018-09-06T02:39:54.911Z,988.60
2018-09-06T02:40:55.141Z,988.60
2018-09-06T02:41:55.372Z,988.60
2018-09-06T02:42:55.601Z,988.60
2018-09-06T02:43:55.829Z,988.58
2018-09-06T02:44:56.056Z,988.57
2018-09-06T02:45:56.285Z,988.56
2018-09-06T02:46:56.514Z,988.55
2018-09-06T02:47:56.747Z,988.57
2018-09-06T02:48:56.975Z,988.57
2018-09-06T02:49:57.206Z,988.56
2018-09-06T02:50:57.437Z,988.54
2018-09-06T02:51:57.667Z,988.54
2018-09-06T02:52:57.895Z,988.50
2018-09-06T02:53:58.187Z,988.53
2018-09-06T02:54:58.362Z,988.48
2018-09-06T02:55:58.591Z,988.45
2018-09-06T02:56:58.820Z,988.45
2018-09-06T02:57:59.048Z,988.45
2018-09-06T02:58:59.275Z,988.43
2018-09-06T02:59:59.506Z,988.46
2018-09-06T03:00:59.738Z,988.46
2018-09-06T03:01:59.964Z,988.44
2018-09-06T03:03:00.192Z,988.42
2018-09-06T03:04:00.424Z,988.42
2018-09-06T03:05:00.655Z,988.43
2018-09-06T03:06:00.880Z,988.43
2018-09-06T03:07:01.110Z,988.39
2018-09-06T03:08:01.340Z,988.41
2018-09-06T03:09:01.564Z,988.38
2018-09-06T03:10:01.797Z,988.40
2018-09-06T03:11:02.025Z,988.36
2018-09-06T03:12:02.250Z,988.36
2018-09-06T03:13:02.479Z,988.37
2018-09-06T03:14:02.705Z,988.36
2018-09-06T03:15:02.943Z,988.35
2018-09-06T03:16:03.158Z,988.32
2018-09-06T03:17:03.389Z,988.29
2018-09-06T03:18:03.618Z,988.30
2018-09-06T03:19:03.848Z,988.27
2018-09-06T03:20:04.075Z,988.26
2018-09-06T03:21:04.305Z,988.26
2018-09-06T03:22:04.535Z,988.28
2018-09-06T03:23:04.765Z,988.27
2018-09-06T03:24:05.000Z,988.27
2018-09-06T03:25:05.224Z,988.25
2018-09-06T03:26:05.455Z,988.26
2018-09-06T03:27:05.684Z,988.25
2018-09-06T03:28:05.916Z,988.25
2018-09-06T03:29:06.144Z,988.29
2018-09-06T03:30:06.372Z,988.25
2018-09-06T03:31:06.602Z,988.27
2018-09-06T03:32:06.832Z,988.29
2018-09-06T03:33:07.057Z,988.29
2018-09-06T03:34:07.286Z,988.24
2018-09-06T03:35:07.514Z,988.23
2018-09-06T03:36:07.846Z,988.24
2018-09-06T03:37:07.975Z,988.21
2018-09-06T03:38:08.204Z,988.22
2018-09-06T03:39:08.435Z,988.18
2018-09-06T03:40:08.663Z,988.22
2018-09-06T03:41:08.890Z,988.18
2018-09-06T03:42:09.117Z,988.22
2018-09-06T03:43:09.346Z,988.20
2018-09-06T03:44:09.578Z,988.16
2018-09-06T03:45:09.808Z,988.22
2018-09-06T03:46:10.039Z,988.17
2018-09-06T03:47:10.277Z,988.15
2018-09-06T03:48:10.502Z,988.14
2018-09-06T03:49:10.730Z,988.12
2018-09-06T03:50:10.956Z,988.12
2018-09-06T03:51:11.187Z,988.14
2018-09-06T03:52:11.413Z,988.12
2018-09-06T03:53:11.638Z,988.13
2018-09-06T03:54:11.868Z,988.12
2018-09-06T03:55:12.097Z,988.13
2018-09-06T03:56:12.324Z,988.12
2018-09-06T03:57:12.552Z,988.14
2018-09-06T03:58:12.779Z,988.15
2018-09-06T03:59:13.009Z,988.13
2018-09-06T04:00:13.237Z,988.16
2018-09-06T04:01:13.470Z,988.14
2018-09-06T04:02:13.695Z,988.15
2018-09-06T04:03:13.924Z,988.14
2018-09-06T04:04:14.159Z,988.14
2018-09-06T04:05:14.381Z,988.17
2018-09-06T04:06:14.610Z,988.17
2018-09-06T04:07:14.839Z,988.17
2018-09-06T04:08:15.075Z,988.15
2018-09-06T04:09:15.326Z,988.16
2018-09-06T04:10:15.556Z,988.13
2018-09-06T04:11:15.788Z,988.11
2018-09-06T04:12:16.015Z,988.15
2018-09-06T04:13:16.242Z,988.14
2018-09-06T04:14:16.471Z,988.12
2018-09-06T04:15:16.703Z,988.09
2018-09-06T04:16:16.938Z,988.13
2018-09-06T04:17:17.163Z,988.13
2018-09-06T04:18:17.414Z,988.14
2018-09-06T04:19:17.619Z,988.13
2018-09-06T04:20:17.849Z,988.17
2018-09-06T04:21:18.077Z,988.14
2018-09-06T04:22:18.308Z,988.14
2018-09-06T04:23:18.536Z,988.13
2018-09-06T04:24:18.823Z,988.13
2018-09-06T04:25:18.992Z,988.11
2018-09-06T04:26:19.222Z,988.09
2018-09-06T04:27:19.449Z,988.14
2018-09-06T04:28:19.681Z,988.13
2018-09-06T04:29:19.911Z,988.11
2018-09-06T04:30:20.136Z,988.11
2018-09-06T04:31:20.366Z,988.08
2018-09-06T04:32:20.595Z,988.09
2018-09-06T04:33:20.820Z,988.09
2018-09-06T04:34:21.049Z,988.11
2018-09-06T04:35:21.279Z,988.09
2018-09-06T04:36:21.505Z,988.09
2018-09-06T04:37:21.735Z,988.07
2018-09-06T04:38:21.962Z,988.10
2018-09-06T04:39:22.191Z,988.10
2018-09-06T04:40:22.418Z,988.08
2018-09-06T04:41:22.649Z,988.08
2018-09-06T04:42:22.880Z,988.07
2018-09-06T04:43:23.114Z,988.08
2018-09-06T04:44:23.341Z,988.10
2018-09-06T04:45:23.572Z,988.12
2018-09-06T04:46:23.798Z,988.12
2018-09-06T04:47:24.028Z,988.11
2018-09-06T04:48:24.256Z,988.08
2018-09-06T04:49:24.484Z,988.08
2018-09-06T04:50:24.714Z,988.08
2018-09-06T04:51:24.946Z,988.05
2018-09-06T04:52:25.175Z,988.09
2018-09-06T04:53:25.403Z,988.10
2018-09-06T04:54:25.649Z,988.09
2018-09-06T04:55:25.903Z,988.11
2018-09-06T04:56:26.092Z,988.11
2018-09-06T04:57:26.322Z,988.11
2018-09-06T04:58:26.580Z,988.10
2018-09-06T04:59:26.780Z,988.13
2018-09-06T05:00:27.009Z,988.08
2018-09-06T05:01:27.246Z,988.11
2018-09-06T05:02:27.467Z,988.09
2018-09-06T05:03:27.702Z,988.07
2018-09-06T05:04:27.936Z,988.05
2018-09-06T05:05:28.154Z,988.09
2018-09-06T05:06:28.380Z,988.08
2018-09-06T05:07:28.610Z,988.08
2018-09-06T05:08:28.838Z,988.09
2018-09-06T05:09:29.066Z,988.09
2018-09-06T05:10:29.295Z,988.09
2018-09-06T05:11:29.532Z,988.07
2018-09-06T05:12:29.752Z,988.06
2018-09-06T05:13:29.984Z,988.08
2018-09-06T05:14:30.208Z,988.10
2018-09-06T05:15:30.436Z,988.10
2018-09-06T05:16:30.668Z,988.12
2018-09-06T05:17:30.901Z,988.11
2018-09-06T05:18:31.126Z,988.11
2018-09-06T05:19:31.358Z,988.12
2018-09-06T05:20:31.585Z,988.13
2018-09-06T05:21:31.810Z,988.12
2018-09-06T05:22:32.030Z,988.13
2018-09-06T05:23:32.258Z,988.18
2018-09-06T05:24:32.487Z,988.12
2018-09-06T05:25:32.718Z,988.15
2018-09-06T05:26:32.945Z,988.10
2018-09-06T05:27:33.181Z,988.15
2018-09-06T05:28:33.409Z,988.12
2018-09-06T05:29:33.639Z,988.15
2018-09-06T05:30:33.904Z,988.15
2018-09-06T05:31:34.100Z,988.18
2018-09-06T05:32:34.327Z,988.15
2018-09-06T05:33:34.558Z,988.14
2018-09-06T05:34:34.787Z,988.15
2018-09-06T05:35:35.023Z,988.14
2018-09-06T05:36:35.341Z,988.14
2018-09-06T05:37:35.480Z,988.16
2018-09-06T05:38:35.710Z,988.12
2018-09-06T05:39:35.943Z,988.12
2018-09-06T05:40:36.173Z,988.11
2018-09-06T05:41:36.402Z,988.12
2018-09-06T05:42:36.642Z,988.11
2018-09-06T05:43:36.862Z,988.14
2018-09-06T05:44:37.094Z,988.16
2018-09-06T05:45:37.326Z,988.18
2018-09-06T05:46:37.558Z,988.18
2018-09-06T05:47:37.795Z,988.22
2018-09-06T05:48:38.020Z,988.21
2018-09-06T05:49:38.253Z,988.20
2018-09-06T05:50:38.485Z,988.22
2018-09-06T05:51:38.714Z,988.22
2018-09-06T05:52:38.947Z,988.21
2018-09-06T05:53:39.182Z,988.16
2018-09-06T05:54:39.410Z,988.19
2018-09-06T05:55:39.642Z,988.19
2018-09-06T05:56:39.875Z,988.21
2018-09-06T05:57:40.105Z,988.20
2018-09-06T05:58:40.339Z,988.25
2018-09-06T05:59:40.624Z,988.22
2018-09-06T06:00:40.803Z,988.22
2018-09-06T06:01:41.035Z,988.18
2018-09-06T06:02:41.267Z,988.20
2018-09-06T06:03:41.499Z,988.20
2018-09-06T06:04:41.732Z,988.17
2018-09-06T06:05:41.963Z,988.19
2018-09-06T06:06:42.193Z,988.21
2018-09-06T06:07:42.427Z,988.20
2018-09-06T06:08:42.691Z,988.13
2018-09-06T06:09:42.913Z,988.16
2018-09-06T06:10:43.109Z,988.18
2018-09-06T06:11:43.369Z,988.18
2018-09-06T06:12:43.573Z,988.18
2018-09-06T06:13:43.810Z,988.19
2018-09-06T06:14:44.038Z,988.19
2018-09-06T06:15:44.272Z,988.19
2018-09-06T06:16:44.505Z,988.18
2018-09-06T06:17:44.739Z,988.18
2018-09-06T06:18:44.974Z,988.17
2018-09-06T06:19:45.205Z,988.15
2018-09-06T06:20:45.425Z,988.14
2018-09-06T06:21:45.678Z,988.17
2018-09-06T06:22:45.912Z,988.11
2018-09-06T06:23:46.145Z,988.15
2018-09-06T06:24:46.376Z,988.15
2018-09-06T06:25:46.611Z,988.18
2018-09-06T06:26:46.846Z,988.13
2018-09-06T06:27:47.078Z,988.16
2018-09-06T06:28:47.309Z,988.18
2018-09-06T06:29:47.549Z,988.15
2018-09-06T06:30:47.778Z,988.15
2018-09-06T06:31:48.064Z,988.16
2018-09-06T06:32:48.249Z,988.14
2018-09-06T06:33:48.486Z,988.16
2018-09-06T06:34:48.729Z,988.16
2018-09-06T06:35:48.955Z,988.19
2018-09-06T06:36:49.183Z,988.18
2018-09-06T06:37:49.417Z,988.18
2018-09-06T06:38:49.651Z,988.16
2018-09-06T06:39:49.938Z,988.18
2018-09-06T06:40:50.132Z,988.11
2018-09-06T06:41:50.370Z,988.09
2018-09-06T06:42:50.603Z,988.08
2018-09-06T06:43:50.838Z,988.09
2018-09-06T06:44:51.071Z,988.05
2018-09-06T06:45:51.312Z,988.06
2018-09-06T06:46:51.538Z,988.06
2018-09-06T06:47:51.770Z,988.05
2018-09-06T06:48:52.004Z,988.03
2018-09-06T06:49:52.242Z,988.02
2018-09-06T06:50:52.477Z,988.02
2018-09-06T06:51:52.705Z,988.01
2018-09-06T06:52:52.939Z,988.02
2018-09-06T06:53:53.173Z,987.99
2018-09-06T06:54:53.408Z,987.98
2018-09-06T06:55:53.644Z,987.96
2018-09-06T06:56:53.876Z,987.98
2018-09-06T06:57:54.110Z,987.95
2018-09-06T06:58:54.349Z,987.93
2018-09-06T06:59:54.580Z,987.93
2018-09-06T07:00:54.875Z,987.97
2018-09-06T07:01:55.046Z,987.94
2018-09-06T07:02:55.280Z,987.88
2018-09-06T07:03:55.515Z,987.87
2018-09-06T07:04:55.749Z,987.85
2018-09-06T07:05:55.984Z,987.86
2018-09-06T07:06:56.323Z,987.84
2018-09-06T07:07:56.451Z,987.89
2018-09-06T07:08:56.682Z,987.87
2018-09-06T07:09:56.913Z,987.88
2018-09-06T07:10:57.146Z,987.89
2018-09-06T07:11:57.381Z,987.86
2018-09-06T07:12:57.619Z,987.86
2018-09-06T07:13:57.847Z,987.87
2018-09-06T07:14:58.080Z,987.85
2018-09-06T07:15:58.316Z,987.92
2018-09-06T07:16:58.551Z,987.88
2018-09-06T07:17:58.783Z,987.89
2018-09-06T07:18:59.011Z,987.86
2018-09-06T07:19:59.242Z,987.88
2018-09-06T07:20:59.475Z,987.84
2018-09-06T07:21:59.710Z,987.86
2018-09-06T07:22:59.943Z,987.84
2018-09-06T07:24:00.180Z,987.77
2018-09-06T07:25:00.454Z,987.82
2018-09-06T07:26:00.647Z,987.80
2018-09-06T07:27:00.888Z,987.82
2018-09-06T07:28:01.115Z,987.82
2018-09-06T07:29:01.348Z,987.83
2018-09-06T07:30:01.583Z,987.84
2018-09-06T07:31:01.823Z,987.84
2018-09-06T07:32:02.046Z,987.83
2018-09-06T07:33:02.280Z,987.85
2018-09-06T07:34:02.520Z,987.85
2018-09-06T07:35:02.745Z,987.87
2018-09-06T07:36:02.978Z,987.86
2018-09-06T07:37:03.207Z,987.87
2018-09-06T07:38:03.442Z,987.88
2018-09-06T07:39:03.676Z,987.88
2018-09-06T07:40:03.910Z,987.84
2018-09-06T07:41:04.147Z,987.90
2018-09-06T07:42:04.379Z,987.89
2018-09-06T07:43:04.609Z,987.88
2018-09-06T07:44:04.844Z,987.89
2018-09-06T07:45:05.078Z,987.89
2018-09-06T07:46:05.316Z,987.86
2018-09-06T07:47:05.544Z,987.89
2018-09-06T07:48:05.779Z,987.86
2018-09-06T07:49:06.011Z,987.88
2018-09-06T07:50:06.325Z,987.85
2018-09-06T07:51:06.482Z,987.89
2018-09-06T07:52:06.727Z,987.84
2018-09-06T07:53:06.948Z,987.86
2018-09-06T07:54:07.198Z,987.83
2018-09-06T07:55:07.433Z,987.80
2018-09-06T07:56:07.665Z,987.78
2018-09-06T07:57:07.899Z,987.81
2018-09-06T07:58:08.135Z,987.76
2018-09-06T07:59:08.364Z,987.81
2018-09-06T08:00:08.598Z,987.78
2018-09-06T08:01:08.830Z,987.77
2018-09-06T08:02:09.057Z,987.79
2018-09-06T08:03:09.289Z,987.76
2018-09-06T08:04:09.522Z,987.78
2018-09-06T08:05:09.759Z,987.79
2018-09-06T08:06:09.992Z,987.76
2018-09-06T08:07:10.228Z,987.79
2018-09-06T08:08:10.459Z,987.72
2018-09-06T08:09:10.693Z,987.72
2018-09-06T08:10:10.923Z,987.69
2018-09-06T08:11:11.158Z,987.68
2018-09-06T08:12:11.447Z,987.65
2018-09-06T08:13:11.627Z,987.67
2018-09-06T08:14:11.865Z,987.65
2018-09-06T08:15:12.091Z,987.67
2018-09-06T08:16:12.327Z,987.67
2018-09-06T08:17:12.558Z,987.67
2018-09-06T08:18:12.791Z,987.67
2018-09-06T08:19:13.034Z,987.64
2018-09-06T08:20:13.260Z,987.64
2018-09-06T08:21:13.496Z,987.62
2018-09-06T08:22:13.727Z,987.65
2018-09-06T08:23:13.959Z,987.64
2018-09-06T08:24:14.235Z,987.60
2018-09-06T08:25:14.424Z,987.59
2018-09-06T08:26:14.657Z,987.59
2018-09-06T08:27:14.904Z,987.59
2018-09-06T08:28:15.127Z,987.61
2018-09-06T08:29:15.361Z,987.59
2018-09-06T08:30:15.595Z,987.58
2018-09-06T08:31:15.854Z,987.55
2018-09-06T08:32:16.066Z,987.59
2018-09-06T08:33:16.303Z,987.59
2018-09-06T08:34:16.535Z,987.60
2018-09-06T08:35:16.767Z,987.52
2018-09-06T08:36:17.003Z,987.53
2018-09-06T08:37:17.234Z,987.49
2018-09-06T08:38:17.469Z,987.54
2018-09-06T08:39:17.700Z,987.50
2018-09-06T08:40:17.932Z,987.48
2018-09-06T08:41:18.172Z,987.51
2018-09-06T08:42:18.413Z,987.48
2018-09-06T08:43:18.637Z,987.50
2018-09-06T08:44:18.871Z,987.51
2018-09-06T08:45:19.140Z,987.52
2018-09-06T08:46:19.338Z,987.50
2018-09-06T08:47:19.579Z,987.50
2018-09-06T08:48:19.802Z,987.52
2018-09-06T08:49:20.035Z,987.49
2018-09-06T08:50:20.270Z,987.48
2018-09-06T08:51:20.505Z,987.49
2018-09-06T08:52:20.800Z,987.49
2018-09-06T08:53:20.972Z,987.50
2018-09-06T08:54:21.207Z,987.45
2018-09-06T08:55:21.443Z,987.48
2018-09-06T08:56:21.685Z,987.45
2018-09-06T08:57:21.913Z,987.43
2018-09-06T08:58:22.165Z,987.46
2018-09-06T08:59:22.385Z,987.45
2018-09-06T09:00:22.612Z,987.43
2018-09-06T09:01:22.853Z,987.45
2018-09-06T09:02:23.138Z,987.43
2018-09-06T09:03:23.388Z,987.42
2018-09-06T09:04:23.562Z,987.42
2018-09-06T09:05:23.791Z,987.39
2018-09-06T09:06:24.023Z,987.33
2018-09-06T09:07:24.265Z,987.35
2018-09-06T09:08:24.508Z,987.35
2018-09-06T09:09:24.722Z,987.34
2018-09-06T09:10:24.956Z,987.30
2018-09-06T09:11:25.196Z,987.30
2018-09-06T09:12:25.436Z,987.26
2018-09-06T09:13:25.698Z,987.29
2018-09-06T09:14:25.903Z,987.27
2018-09-06T09:15:26.128Z,987.22
2018-09-06T09:16:26.383Z,987.18
2018-09-06T09:17:26.598Z,987.18
2018-09-06T09:18:26.954Z,987.19
2018-09-06T09:19:27.068Z,987.15
2018-09-06T09:20:27.323Z,987.19
2018-09-06T09:21:27.564Z,987.13
2018-09-06T09:22:27.972Z,987.19
2018-09-06T09:23:28.011Z,987.14
2018-09-06T09:24:28.238Z,987.15
2018-09-06T09:25:28.528Z,987.10
2018-09-06T09:26:28.710Z,987.15
2018-09-06T09:27:28.943Z,987.10
2018-09-06T09:28:29.178Z,987.09
2018-09-06T09:29:29.408Z,987.12
2018-09-06T09:30:29.686Z,987.07
2018-09-06T09:31:29.876Z,987.14
2018-09-06T09:32:30.110Z,987.12
2018-09-06T09:33:30.345Z,987.10
2018-09-06T09:34:30.579Z,987.09
2018-09-06T09:35:30.817Z,987.09
2018-09-06T09:36:31.050Z,987.04
2018-09-06T09:37:31.325Z,987.07
2018-09-06T09:38:31.513Z,987.03
2018-09-06T09:39:31.748Z,987.01
2018-09-06T09:40:31.977Z,986.97
2018-09-06T09:41:32.213Z,986.97
2018-09-06T09:42:32.443Z,986.97
2018-09-06T09:43:32.686Z,986.94
2018-09-06T09:44:32.919Z,986.95
2018-09-06T09:45:33.163Z,986.93
2018-09-06T09:48:06.577Z,986.95
2018-09-06T09:49:06.817Z,986.91
2018-09-06T09:50:07.047Z,986.91
2018-09-06T09:51:07.283Z,986.88
2018-09-06T09:52:07.520Z,986.86
2018-09-06T09:53:07.753Z,986.85
2018-09-06T09:54:07.989Z,986.87
2018-09-06T09:55:08.224Z,986.83
2018-09-06T09:56:08.460Z,986.83
2018-09-06T09:57:08.767Z,986.80
2018-09-06T09:58:08.931Z,986.79
2018-09-06T09:59:09.166Z,986.79
2018-09-06T10:00:09.398Z,986.77
2018-09-06T10:01:09.634Z,986.78
2018-09-06T10:02:09.873Z,986.77
2018-09-06T10:03:10.110Z,986.75
2018-09-06T10:04:10.344Z,986.80
2018-09-06T10:05:10.585Z,986.77
2018-09-06T10:06:10.819Z,986.77
2018-09-06T10:07:11.052Z,986.74
2018-09-06T10:08:11.288Z,986.73
2018-09-06T10:09:11.520Z,986.71
2018-09-06T10:10:11.756Z,986.69
2018-09-06T10:11:11.992Z,986.63
2018-09-06T10:12:12.224Z,986.61
2018-09-06T10:13:12.460Z,986.62
2018-09-06T10:14:12.700Z,986.62
2018-09-06T10:15:12.932Z,986.55
2018-09-06T10:16:13.168Z,986.59
2018-09-06T10:17:13.446Z,986.64
2018-09-06T10:18:13.644Z,986.58
2018-09-06T10:19:13.880Z,986.60
2018-09-06T10:20:14.116Z,986.60
2018-09-06T10:21:14.353Z,986.58
2018-09-06T10:22:14.587Z,986.56
2018-09-06T10:23:14.824Z,986.54
2018-09-06T10:24:15.062Z,986.55
2018-09-06T10:25:15.297Z,986.55
2018-09-06T10:26:15.535Z,986.62
2018-09-06T10:27:15.768Z,986.57
2018-09-06T10:28:16.004Z,986.55
2018-09-06T10:29:16.245Z,986.54
2018-09-06T10:30:16.479Z,986.51
2018-09-06T10:31:16.714Z,986.54
2018-09-06T10:32:16.949Z,986.49
2018-09-06T10:33:17.186Z,986.51
2018-09-06T10:34:17.423Z,986.49
2018-09-06T10:35:17.667Z,986.49
2018-09-06T10:36:17.889Z,986.46
2018-09-06T10:37:18.129Z,986.48
2018-09-06T10:38:18.363Z,986.41
2018-09-06T10:39:18.610Z,986.44
2018-09-06T10:40:18.838Z,986.42
2018-09-06T10:41:19.075Z,986.41
2018-09-06T10:42:19.315Z,986.40
2018-09-06T10:43:19.548Z,986.38
2018-09-06T10:44:19.786Z,986.36
2018-09-06T10:45:20.025Z,986.32
2018-09-06T10:46:20.261Z,986.35
2018-09-06T10:47:20.498Z,986.36
2018-09-06T10:48:20.736Z,986.36
2018-09-06T10:49:20.969Z,986.32
2018-09-06T10:50:21.216Z,986.30
2018-09-06T10:51:21.442Z,986.33
2018-09-06T10:52:21.680Z,986.31
2018-09-06T10:53:21.915Z,986.32
2018-09-06T10:54:22.155Z,986.29
2018-09-06T10:55:22.391Z,986.28
2018-09-06T10:56:22.625Z,986.25
2018-09-06T10:57:22.861Z,986.24
2018-09-06T10:58:23.101Z,986.19
2018-09-06T10:59:23.339Z,986.19
2018-09-06T11:00:23.576Z,986.15
2018-09-06T11:01:23.814Z,986.15
2018-09-06T11:02:24.050Z,986.16
2018-09-06T11:03:24.288Z,986.12
2018-09-06T11:04:24.528Z,986.11
2018-09-06T11:05:24.763Z,986.10
2018-09-06T11:06:25.001Z,986.09
2018-09-06T11:07:25.237Z,986.07
2018-09-06T11:08:25.526Z,986.02
2018-09-06T11:09:25.722Z,986.03
2018-09-06T11:10:25.949Z,986.03
2018-09-06T11:11:26.185Z,986.01
2018-09-06T11:12:26.423Z,986.03
2018-09-06T11:13:26.661Z,985.97
2018-09-06T11:14:26.899Z,986.00
2018-09-06T11:15:27.135Z,985.99
2018-09-06T11:16:27.374Z,986.02
2018-09-06T11:17:27.611Z,985.96
2018-09-06T11:18:27.848Z,985.95
2018-09-06T11:19:28.083Z,985.99
2018-09-06T11:20:28.320Z,985.96
2018-09-06T11:21:28.643Z,985.95
2018-09-06T11:22:28.993Z,985.97
2018-09-06T11:23:29.033Z,985.99
2018-09-06T11:24:29.271Z,985.97
2018-09-06T11:25:29.507Z,985.96
2018-09-06T11:26:29.741Z,985.91
2018-09-06T11:27:30.039Z,985.92
2018-09-06T11:28:30.221Z,985.90
2018-09-06T11:29:30.455Z,985.90
2018-09-06T11:30:30.694Z,985.87
2018-09-06T11:31:30.930Z,985.84
2018-09-06T11:32:31.171Z,985.84
2018-09-06T11:33:31.404Z,985.85
2018-09-06T11:34:31.643Z,985.83
2018-09-06T11:35:31.879Z,985.82
2018-09-06T11:36:32.114Z,985.80
2018-09-06T11:37:32.351Z,985.78
2018-09-06T11:38:32.590Z,985.78
2018-09-06T11:39:32.828Z,985.78
2018-09-06T11:40:33.096Z,985.75
2018-09-06T11:41:33.305Z,985.74
2018-09-06T11:42:33.539Z,985.72
2018-09-06T11:43:33.777Z,985.70
2018-09-06T11:44:34.013Z,985.69
2018-09-06T11:45:34.286Z,985.69
2018-09-06T11:46:34.500Z,985.71
2018-09-06T11:47:34.731Z,985.66
2018-09-06T11:48:34.960Z,985.65
2018-09-06T11:49:35.226Z,985.66
2018-09-06T11:50:35.445Z,985.70
2018-09-06T11:51:35.670Z,985.67
2018-09-06T11:52:35.908Z,985.67
2018-09-06T11:53:36.143Z,985.68
2018-09-06T11:54:36.381Z,985.67
2018-09-06T11:55:36.618Z,985.69
2018-09-06T11:56:36.853Z,985.67
2018-09-06T11:57:37.093Z,985.65
2018-09-06T11:58:37.335Z,985.67
2018-09-06T11:59:37.573Z,985.67
2018-09-06T12:00:37.809Z,985.67
2018-09-06T12:01:38.046Z,985.67
2018-09-06T12:02:38.286Z,985.62
2018-09-06T12:03:38.523Z,985.65
2018-09-06T12:04:38.763Z,985.67
2018-09-06T12:05:38.998Z,985.68
2018-09-06T12:06:39.238Z,985.70
2018-09-06T12:07:39.475Z,985.63
2018-09-06T12:08:39.714Z,985.64
2018-09-06T12:09:39.951Z,985.66
2018-09-06T12:10:40.189Z,985.61
2018-09-06T12:11:40.428Z,985.63
2018-09-06T12:12:40.665Z,985.66
2018-09-06T12:13:40.913Z,985.66
2018-09-06T12:14:41.147Z,985.64
2018-09-06T12:15:41.387Z,985.73
2018-09-06T12:16:41.617Z,985.71
2018-09-06T12:17:41.855Z,985.76
2018-09-06T12:18:42.091Z,985.80
2018-09-06T12:19:42.328Z,985.76
2018-09-06T12:20:42.566Z,985.80
2018-09-06T12:21:42.802Z,985.76
2018-09-06T12:22:43.040Z,985.71
2018-09-06T12:23:43.275Z,985.72
2018-09-06T12:24:43.512Z,985.71
2018-09-06T12:25:43.812Z,985.70
2018-09-06T12:26:43.983Z,985.70
2018-09-06T12:27:44.220Z,985.77
2018-09-06T12:28:44.456Z,985.76
2018-09-06T12:29:44.693Z,985.77
2018-09-06T12:30:44.929Z,985.74
2018-09-06T12:31:45.165Z,985.72
2018-09-06T12:32:45.400Z,985.72
2018-09-06T12:33:45.633Z,985.72
2018-09-06T12:34:45.871Z,985.65
2018-09-06T12:35:46.106Z,985.59
2018-09-06T12:36:46.342Z,985.64